createdAt,value
2018-09-19T00:02:11.522Z,98814.09
2018-09-19T00:04:40.037Z,98821.09
2018-09-19T00:07:08.490Z,98811.60
2018-09-19T00:09:36.976Z,98818.06
2018-09-19T00:12:05.474Z,98805.18
2018-09-19T00:14:34.114Z,98815.83
2018-09-19T00:17:03.102Z,98822.91
2018-09-19T00:19:31.737Z,98826.91
2018-09-19T00:22:00.347Z,98827.53
2018-09-19T00:24:28.888Z,98827.81
2018-09-19T00:26:57.364Z,98825.69
2018-09-19T00:29:25.859Z,98824.59
2018-09-19T00:31:54.326Z,98825.25
2018-09-19T00:34:22.835Z,98822.91
2018-09-19T00:36:52.156Z,98821.48
2018-09-19T00:39:20.682Z,98813.70
2018-09-19T00:41:49.197Z,98824.63
2018-09-19T00:44:17.645Z,98824.92
2018-09-19T00:46:46.161Z,98819.44
2018-09-19T00:49:14.636Z,98816.97
2018-09-19T00:51:43.155Z,98827.26
2018-09-19T00:54:11.605Z,98819.52
2018-09-19T00:56:40.034Z,98819.48
2018-09-19T00:59:08.555Z,98824.98
2018-09-19T01:01:37.057Z,98823.94
2018-09-19T01:04:05.506Z,98816.70
2018-09-19T01:06:34.129Z,98823.81
2018-09-19T01:09:02.848Z,98820.13
2018-09-19T01:11:31.419Z,98825.55
2018-09-19T01:13:59.997Z,98824.84
2018-09-19T01:16:28.440Z,98821.41
2018-09-19T01:18:56.994Z,98829.77
2018-09-19T01:21:25.546Z,98828.83
2018-09-19T01:23:53.973Z,98839.88
2018-09-19T01:26:22.506Z,98845.67
2018-09-19T01:28:50.928Z,98843.24
2018-09-19T01:31:19.477Z,98841.47
2018-09-19T01:33:47.905Z,98841.38
2018-09-19T01:36:16.400Z,98837.39
2018-09-19T01:38:45.141Z,98841.39
2018-09-19T01:41:13.669Z,98848.59
2018-09-19T01:43:42.305Z,98842.73
2018-09-19T01:46:10.833Z,98845.30
2018-09-19T01:48:39.249Z,98845.25
2018-09-19T01:51:07.727Z,98842.48
2018-09-19T01:53:36.157Z,98844.73
2018-09-19T01:56:04.762Z,98841.25
2018-09-19T01:58:33.143Z,98843.19
2018-09-19T02:01:01.811Z,98843.50
2018-09-19T02:03:30.456Z,98842.80
2018-09-19T02:05:58.865Z,98834.87
2018-09-19T02:08:27.474Z,98837.02
2018-09-19T02:10:55.949Z,98838.36
2018-09-19T02:13:24.451Z,98840.38
2018-09-19T02:15:52.918Z,98844.82
2018-09-19T02:18:21.416Z,98842.98
2018-09-19T02:20:49.843Z,98840.34
2018-09-19T02:23:18.405Z,98844.16
2018-09-19T02:25:46.925Z,98842.51
2018-09-19T02:28:15.490Z,98841.61
2018-09-19T02:30:43.885Z,98837.73
2018-09-19T02:33:12.383Z,98839.50
2018-09-19T02:35:40.842Z,98835.97
2018-09-19T02:38:09.349Z,98836.41
2018-09-19T02:40:37.890Z,98843.46
2018-09-19T02:43:06.489Z,98839.86
2018-09-19T02:45:35.532Z,98845.05
2018-09-19T02:48:04.263Z,98843.37
2018-09-19T02:50:32.915Z,98850.04
2018-09-19T02:53:01.603Z,98846.61
2018-09-19T02:55:30.079Z,98853.65
2018-09-19T02:57:58.526Z,98845.50
2018-09-19T03:00:27.034Z,98843.81
2018-09-19T03:02:55.493Z,98838.36
2018-09-19T03:05:23.939Z,98838.43
2018-09-19T03:07:52.462Z,98836.71
2018-09-19T03:10:20.921Z,98831.53
2018-09-19T03:12:49.410Z,98835.43
2018-09-19T03:15:17.869Z,98830.08
2018-09-19T03:17:46.419Z,98842.94
2018-09-19T03:20:14.838Z,98843.05
2018-09-19T03:22:43.352Z,98844.59
2018-09-19T03:25:11.791Z,98847.35
2018-09-19T03:27:40.288Z,98849.20
2018-09-19T03:30:08.790Z,98857.22
2018-09-19T03:32:37.333Z,98864.16
2018-09-19T03:35:05.778Z,98865.80
2018-09-19T03:37:34.193Z,98866.17
2018-09-19T03:40:03.005Z,98869.80
2018-09-19T03:42:31.567Z,98871.54
2018-09-19T03:45:00.086Z,98883.16
2018-09-19T03:47:28.618Z,98878.78
2018-09-19T03:49:57.169Z,98866.96
2018-09-19T03:52:25.672Z,98877.22
2018-09-19T03:54:54.111Z,98870.33
2018-09-19T03:57:22.697Z,98871.75
2018-09-19T03:59:51.177Z,98863.59
2018-09-19T04:02:19.661Z,98858.53
2018-09-19T04:04:48.282Z,98858.78
2018-09-19T04:07:16.857Z,98860.19
2018-09-19T04:09:45.526Z,98863.17
2018-09-19T04:12:14.107Z,98867.21
2018-09-19T04:14:42.589Z,98870.27
2018-09-19T04:17:11.095Z,98871.66
2018-09-19T04:19:39.689Z,98864.51
2018-09-19T04:22:08.224Z,98860.68
2018-09-19T04:24:37.664Z,98862.83
2018-09-19T04:27:06.238Z,98863.80
2018-09-19T04:29:34.748Z,98861.41
2018-09-19T04:32:03.784Z,98865.11
2018-09-19T04:34:32.426Z,98871.76
2018-09-19T04:37:01.130Z,98875.45
2018-09-19T04:39:29.621Z,98879.75
2018-09-19T04:41:58.105Z,98885.00
2018-09-19T04:44:26.691Z,98889.30
2018-09-19T04:46:56.118Z,98892.78
2018-09-19T04:49:24.721Z,98893.84
2018-09-19T04:51:53.264Z,98894.39
2018-09-19T04:54:21.751Z,98888.24
2018-09-19T04:56:50.293Z,98891.86
2018-09-19T04:59:18.913Z,98892.64
2018-09-19T05:01:47.418Z,98893.48
2018-09-19T05:04:15.921Z,98895.26
2018-09-19T05:06:44.373Z,98901.64
2018-09-19T05:09:12.858Z,98897.10
2018-09-19T05:11:41.334Z,98904.09
2018-09-19T05:14:09.789Z,98903.88
2018-09-19T05:16:38.290Z,98907.03
2018-09-19T05:19:06.777Z,98906.02
2018-09-19T05:21:35.293Z,98908.92
2018-09-19T05:24:04.214Z,98912.50
2018-09-19T05:26:32.892Z,98912.84
2018-09-19T05:29:01.713Z,98910.48
2018-09-19T05:31:30.306Z,98906.11
2018-09-19T05:33:58.785Z,98909.09
2018-09-19T05:36:27.281Z,98907.58
2018-09-19T05:38:55.720Z,98911.41
2018-09-19T05:41:24.490Z,98908.92
2018-09-19T05:43:52.902Z,98913.38
2018-09-19T05:46:21.471Z,98912.16
2018-09-19T05:48:50.122Z,98924.43
2018-09-19T05:51:18.652Z,98915.88
2018-09-19T05:53:47.181Z,98925.72
2018-09-19T05:56:15.660Z,98928.05
2018-09-19T05:58:44.102Z,98930.69
2018-09-19T06:01:12.618Z,98933.86
2018-09-19T06:03:41.091Z,98948.15
2018-09-19T06:06:09.557Z,98956.75
2018-09-19T06:08:38.046Z,98955.66
2018-09-19T06:11:06.580Z,98965.44
2018-09-19T06:13:35.036Z,98967.92
2018-09-19T06:16:03.719Z,98977.12
2018-09-19T06:18:32.523Z,98976.81
2018-09-19T06:21:01.100Z,98981.63
2018-09-19T06:23:29.657Z,98990.84
2018-09-19T06:25:58.125Z,98985.40
2018-09-19T06:28:26.610Z,98979.44
2018-09-19T06:30:55.438Z,98980.72
2018-09-19T06:33:24.014Z,98982.17
2018-09-19T06:35:52.458Z,98980.30
2018-09-19T06:38:21.010Z,98977.38
2018-09-19T06:40:49.615Z,98981.52
2018-09-19T06:43:18.041Z,98978.23
2018-09-19T06:45:46.553Z,98980.30
2018-09-19T06:48:14.981Z,98981.09
2018-09-19T06:50:43.536Z,98989.85
2018-09-19T06:53:12.056Z,98986.09
2018-09-19T06:55:40.632Z,98985.87
2018-09-19T06:58:09.198Z,98993.69
2018-09-19T07:00:37.618Z,99001.89
2018-09-19T07:03:06.104Z,99005.97
2018-09-19T07:05:34.618Z,99012.78
2018-09-19T07:08:03.629Z,99010.09
2018-09-19T07:10:32.343Z,99012.46
2018-09-19T07:13:00.886Z,99019.27
2018-09-19T07:15:29.393Z,99016.43
2018-09-19T07:17:57.872Z,99013.25
2018-09-19T07:20:26.562Z,99027.48
2018-09-19T07:22:55.055Z,99019.03
2018-09-19T07:25:23.542Z,99020.20
2018-09-19T07:27:52.038Z,99023.75
2018-09-19T07:30:20.568Z,99026.47
2018-09-19T07:32:49.383Z,99020.33
2018-09-19T07:35:17.915Z,99021.36
2018-09-19T07:37:46.333Z,99027.23
2018-09-19T07:40:14.927Z,99019.23
2018-09-19T07:42:43.400Z,99016.99
2018-09-19T07:45:11.941Z,99023.89
2018-09-19T07:47:40.375Z,99020.44
2018-09-19T07:50:09.524Z,99022.75
2018-09-19T07:52:38.106Z,99027.78
2018-09-19T07:55:07.063Z,99029.77
2018-09-19T07:57:35.954Z,99027.64
2018-09-19T08:00:04.972Z,99026.69
2018-09-19T08:02:33.521Z,99034.83
2018-09-19T08:05:02.225Z,99036.80
2018-09-19T08:07:30.741Z,99031.67
2018-09-19T08:09:59.330Z,99030.53
2018-09-19T08:12:27.847Z,99039.46
2018-09-19T08:14:56.370Z,99035.20
2018-09-19T08:17:24.871Z,99039.73
2018-09-19T08:19:53.354Z,99043.50
2018-09-19T08:22:21.870Z,99042.16
2018-09-19T08:24:50.408Z,99041.05
2018-09-19T08:27:18.983Z,99044.11
2018-09-19T08:29:47.579Z,99040.55
2018-09-19T08:32:15.992Z,99041.77
2018-09-19T08:34:44.513Z,99041.19
2018-09-19T08:37:13.227Z,99047.97
2018-09-19T08:39:41.785Z,99038.31
2018-09-19T08:42:10.249Z,99044.74
2018-09-19T08:44:38.861Z,99044.02
2018-09-19T08:47:07.304Z,99048.28
2018-09-19T08:49:35.832Z,99036.66
2018-09-19T08:52:04.288Z,99033.95
2018-09-19T08:54:32.776Z,99041.91
2018-09-19T08:57:01.408Z,99031.13
2018-09-19T08:59:29.875Z,99029.22
2018-09-19T09:01:58.308Z,99031.62
2018-09-19T09:04:26.781Z,99031.81
2018-09-19T09:06:55.218Z,99034.64
2018-09-19T09:09:23.706Z,99034.00
2018-09-19T09:11:52.136Z,99035.00
2018-09-19T09:14:20.605Z,99036.37
2018-09-19T09:16:49.106Z,99032.39
2018-09-19T09:19:17.563Z,99030.84
2018-09-19T09:21:46.101Z,99023.34
2018-09-19T09:24:14.762Z,99033.59
2018-09-19T09:26:43.282Z,99024.59
2018-09-19T09:29:11.802Z,99026.06
2018-09-19T09:31:40.282Z,99028.18
2018-09-19T09:34:08.899Z,99027.84
2018-09-19T09:36:37.442Z,99028.52
2018-09-19T09:39:06.713Z,99027.84
2018-09-19T09:41:35.254Z,99020.44
2018-09-19T09:44:03.897Z,99027.22
2018-09-19T09:46:32.457Z,99032.72
2018-09-19T09:49:01.011Z,99024.80
2018-09-19T09:51:29.481Z,99028.99
2018-09-19T09:53:58.161Z,99024.95
2018-09-19T09:56:26.650Z,99020.52
2018-09-19T09:58:55.104Z,99028.69
2018-09-19T10:01:23.547Z,99023.33
2018-09-19T10:03:52.027Z,99027.91
2018-09-19T10:06:20.528Z,99016.81
2018-09-19T10:08:48.906Z,99023.61
2018-09-19T10:11:17.434Z,99018.94
2018-09-19T10:13:46.087Z,99009.34
2018-09-19T10:16:14.530Z,99015.38
2018-09-19T10:18:43.147Z,99014.14
2018-09-19T10:21:11.742Z,99007.07
2018-09-19T10:23:40.288Z,99012.23
2018-09-19T10:26:08.722Z,99005.94
2018-09-19T10:28:37.213Z,99021.43
2018-09-19T10:31:05.688Z,99015.25
2018-09-19T10:33:34.188Z,99009.94
2018-09-19T10:36:02.960Z,99012.50
2018-09-19T10:38:32.003Z,99007.44
2018-09-19T10:41:00.692Z,98999.94
2018-09-19T10:43:29.252Z,99001.73
2018-09-19T10:45:57.697Z,98992.52
2018-09-19T10:48:26.201Z,98998.75
2018-09-19T10:50:54.678Z,98997.13
2018-09-19T10:53:23.175Z,98993.20
2018-09-19T10:55:51.721Z,98999.33
2018-09-19T10:58:20.220Z,98996.20
2018-09-19T11:00:48.695Z,98996.75
2018-09-19T11:03:17.185Z,98989.07
2018-09-19T11:05:45.655Z,98977.67
2018-09-19T11:08:14.146Z,98982.19
2018-09-19T11:10:42.609Z,98985.49
2018-09-19T11:13:11.138Z,98979.98
2018-09-19T11:15:39.605Z,98975.22
2018-09-19T11:18:08.226Z,98976.91
2018-09-19T11:20:36.798Z,98974.70
2018-09-19T11:23:05.278Z,98981.20
2018-09-19T11:25:33.934Z,98972.50
2018-09-19T11:28:02.457Z,98976.12
2018-09-19T11:30:31.077Z,98970.29
2018-09-19T11:32:59.557Z,98968.44
2018-09-19T11:35:28.062Z,98966.13
2018-09-19T11:37:56.696Z,98962.38
2018-09-19T11:40:25.265Z,98971.74
2018-09-19T11:42:53.816Z,98970.17
2018-09-19T11:45:22.442Z,98967.84
2018-09-19T11:47:51.019Z,98965.75
2018-09-19T11:50:19.502Z,98966.36
2018-09-19T11:52:47.957Z,98964.24
2018-09-19T11:55:16.424Z,98962.84
2018-09-19T11:57:44.890Z,98963.90
2018-09-19T12:00:13.398Z,98966.19
2018-09-19T12:02:41.848Z,98961.45
2018-09-19T12:05:10.349Z,98959.03
2018-09-19T12:07:38.829Z,98957.20
2018-09-19T12:10:07.355Z,98950.44
2018-09-19T12:12:35.783Z,98955.67
2018-09-19T12:15:04.610Z,98952.11
2018-09-19T12:17:33.312Z,98951.98
2018-09-19T12:20:02.097Z,98948.14
2018-09-19T12:22:30.629Z,98941.11
2018-09-19T12:24:59.133Z,98941.56
2018-09-19T12:27:27.598Z,98940.16
2018-09-19T12:29:56.086Z,98937.47
2018-09-19T12:32:24.556Z,98934.95
2018-09-19T12:34:52.981Z,98934.25
2018-09-19T12:37:22.457Z,98937.16
2018-09-19T12:39:51.023Z,98930.31
2018-09-19T12:42:19.513Z,98920.72
2018-09-19T12:44:48.246Z,98927.63
2018-09-19T12:47:17.700Z,98922.66
2018-09-19T12:49:46.210Z,98917.05
2018-09-19T12:52:14.660Z,98920.34
2018-09-19T12:54:43.225Z,98920.70
2018-09-19T12:57:11.779Z,98907.47
2018-09-19T12:59:40.277Z,98904.94
2018-09-19T13:02:08.788Z,98903.11
2018-09-19T13:04:37.277Z,98910.23
2018-09-19T13:07:05.810Z,98901.50
2018-09-19T13:09:34.266Z,98902.94
2018-09-19T13:12:03.154Z,98901.88
2018-09-19T13:14:31.805Z,98899.45
2018-09-19T13:17:00.386Z,98899.33
2018-09-19T13:19:28.998Z,98894.05
2018-09-19T13:21:57.501Z,98886.00
2018-09-19T13:24:25.946Z,98897.91
2018-09-19T13:26:54.449Z,98893.70
2018-09-19T13:29:22.947Z,98891.47
2018-09-19T13:31:51.790Z,98890.09
2018-09-19T13:34:20.334Z,98884.72
2018-09-19T13:36:48.805Z,98872.78
2018-09-19T13:39:17.246Z,98879.86
2018-09-19T13:41:45.750Z,98886.70
2018-09-19T13:44:14.222Z,98879.61
2018-09-19T13:46:42.732Z,98871.35
2018-09-19T13:49:25.490Z,98876.03
2018-09-19T13:51:53.919Z,98872.31
2018-09-19T13:54:22.420Z,98873.37
2018-09-19T13:56:50.882Z,98868.06
2018-09-19T13:59:19.363Z,98869.85
2018-09-19T14:01:47.866Z,98861.84
2018-09-19T14:04:17.071Z,98865.77
2018-09-19T14:06:45.513Z,98864.73
2018-09-19T14:09:14.114Z,98858.75
2018-09-19T14:11:42.583Z,98862.19
2018-09-19T14:14:11.134Z,98861.62
2018-09-19T14:16:39.594Z,98856.03
2018-09-19T14:19:08.578Z,98857.69
2018-09-19T14:21:37.134Z,98857.62
2018-09-19T14:24:05.649Z,98855.68
2018-09-19T14:26:34.222Z,98850.78
2018-09-19T14:29:02.782Z,98850.25
2018-09-19T14:31:31.329Z,98851.19
2018-09-19T14:33:59.814Z,98847.47
2018-09-19T14:36:28.406Z,98840.27
2018-09-19T14:38:56.838Z,98841.05
2018-09-19T14:41:25.377Z,98846.92
2018-09-19T14:43:53.939Z,98843.12
2018-09-19T14:46:22.506Z,98839.68
2018-09-19T14:48:51.054Z,98843.54
2018-09-19T14:51:19.598Z,98835.78
2018-09-19T14:53:48.112Z,98829.68
2018-09-19T14:56:16.657Z,98834.16
2018-09-19T14:58:45.237Z,98824.79
2018-09-19T15:01:13.818Z,98827.34
2018-09-19T15:03:42.360Z,98828.44
2018-09-19T15:06:10.820Z,98824.58
2018-09-19T15:08:39.558Z,98817.18
2018-09-19T15:11:08.078Z,98817.78
2018-09-19T15:13:36.750Z,98818.09
2018-09-19T15:16:05.235Z,98817.77
2018-09-19T15:18:33.975Z,98818.03
2018-09-19T15:21:03.003Z,98816.81
2018-09-19T15:23:31.663Z,98817.91
2018-09-19T15:26:00.234Z,98813.02
2018-09-19T15:28:28.828Z,98805.23
2018-09-19T15:30:57.554Z,98805.52
2018-09-19T15:33:26.046Z,98805.28
2018-09-19T15:35:54.770Z,98798.66
2018-09-19T15:38:23.260Z,98800.09
2018-09-19T15:40:51.928Z,98797.95
2018-09-19T15:43:20.393Z,98799.70
2018-09-19T15:45:48.993Z,98792.78
2018-09-19T15:48:17.473Z,98796.08
2018-09-19T15:50:46.122Z,98800.52
2018-09-19T15:53:14.631Z,98803.22
2018-09-19T15:55:43.162Z,98798.75
2018-09-19T15:58:11.866Z,98808.17
2018-09-19T16:00:40.413Z,98811.06
2018-09-19T16:03:09.077Z,98806.66
2018-09-19T16:05:37.578Z,98809.86
2018-09-19T16:08:06.266Z,98808.02
2018-09-19T16:10:34.699Z,98805.05
2018-09-19T16:13:03.559Z,98798.00
2018-09-19T16:15:32.075Z,98799.36
2018-09-19T16:18:00.777Z,98802.07
2018-09-19T16:20:29.229Z,98808.56
2018-09-19T16:22:57.715Z,98807.09
2018-09-19T16:25:26.302Z,98808.66
2018-09-19T16:27:54.847Z,98802.34
2018-09-19T16:30:23.433Z,98804.59
2018-09-19T16:32:51.984Z,98801.11
2018-09-19T16:35:20.498Z,98801.66
2018-09-19T16:37:49.033Z,98800.27
2018-09-19T16:40:17.542Z,98800.49
2018-09-19T16:42:46.029Z,98795.84
2018-09-19T16:45:14.479Z,98808.91
2018-09-19T16:47:42.980Z,98812.25
2018-09-19T16:50:11.488Z,98805.13
2018-09-19T16:52:40.076Z,98803.34
2018-09-19T16:55:08.656Z,98802.63
2018-09-19T16:57:37.214Z,98804.75
2018-09-19T17:00:06.817Z,98800.38
2018-09-19T17:02:35.342Z,98805.60
2018-09-19T17:05:04.243Z,98805.33
2018-09-19T17:07:32.963Z,98805.86
2018-09-19T17:10:01.538Z,98808.05
2018-09-19T17:12:30.295Z,98805.11
2018-09-19T17:14:58.886Z,98800.55
2018-09-19T17:17:27.437Z,98803.95
2018-09-19T17:19:55.881Z,98805.22
2018-09-19T17:22:24.362Z,98806.72
2018-09-19T17:24:52.861Z,98809.23
2018-09-19T17:27:21.310Z,98813.43
2018-09-19T17:29:49.802Z,98805.75
2018-09-19T17:32:18.424Z,98806.85
2018-09-19T17:34:46.939Z,98809.25
2018-09-19T17:37:15.603Z,98810.41
2018-09-19T17:39:44.058Z,98808.66
2018-09-19T17:42:12.510Z,98808.88
2018-09-19T17:44:41.014Z,98802.84
2018-09-19T17:47:09.530Z,98816.28
2018-09-19T17:49:38.063Z,98821.19
2018-09-19T17:52:06.538Z,98821.00
2018-09-19T17:54:34.978Z,98818.08
2018-09-19T17:57:03.719Z,98823.06
2018-09-19T17:59:33.544Z,98820.66
2018-09-19T18:02:02.432Z,98818.78
2018-09-19T18:04:31.081Z,98826.14
2018-09-19T18:06:59.575Z,98827.83
2018-09-19T18:09:28.067Z,98823.31
2018-09-19T18:11:56.574Z,98824.25
2018-09-19T18:14:25.018Z,98834.42
2018-09-19T18:16:53.604Z,98831.89
2018-09-19T18:19:22.083Z,98833.21
2018-09-19T18:21:50.823Z,98834.47
2018-09-19T18:24:19.274Z,98838.77
2018-09-19T18:26:47.830Z,98839.69
2018-09-19T18:29:16.330Z,98847.42
2018-09-19T18:31:44.817Z,98845.83
2018-09-19T18:34:13.354Z,98846.70
2018-09-19T18:36:41.928Z,98855.48
2018-09-19T18:39:10.472Z,98845.47
2018-09-19T18:41:38.962Z,98850.16
2018-09-19T18:44:07.414Z,98849.52
2018-09-19T18:46:35.974Z,98850.09
2018-09-19T18:49:04.645Z,98852.52
2018-09-19T18:51:33.310Z,98850.63
2018-09-19T18:54:01.780Z,98848.48
2018-09-19T18:56:30.266Z,98859.58
2018-09-19T18:58:58.721Z,98853.70
2018-09-19T19:01:27.332Z,98853.28
2018-09-19T19:03:55.833Z,98855.27
2018-09-19T19:06:24.326Z,98868.26
2018-09-19T19:08:52.982Z,98868.91
2018-09-19T19:11:21.605Z,98870.23
2018-09-19T19:13:50.115Z,98875.48
2018-09-19T19:16:18.898Z,98885.22
2018-09-19T19:18:47.408Z,98881.22
2018-09-19T19:21:15.905Z,98885.67
2018-09-19T19:23:44.478Z,98889.13
2018-09-19T19:26:12.945Z,98897.17
2018-09-19T19:28:41.466Z,98900.66
2018-09-19T19:31:09.953Z,98900.52
2018-09-19T19:33:38.382Z,98901.88
2018-09-19T19:36:07.138Z,98900.08
2018-09-19T19:41:16.219Z,98909.52
2018-09-19T19:43:44.701Z,98909.31
2018-09-19T19:46:13.237Z,98908.11
2018-09-19T19:48:41.774Z,98905.14
2018-09-19T19:51:10.276Z,98905.22
2018-09-19T19:53:38.725Z,98904.97
2018-09-19T19:56:07.417Z,98910.20
2018-09-19T19:58:35.918Z,98904.83
2018-09-19T20:01:05.533Z,98913.33
2018-09-19T20:03:34.110Z,98908.27
2018-09-19T20:06:02.879Z,98913.59
2018-09-19T20:08:31.338Z,98918.95
2018-09-19T20:10:59.846Z,98917.30
2018-09-19T20:13:28.341Z,98923.95
2018-09-19T20:15:56.782Z,98922.30
2018-09-19T20:18:25.356Z,98925.95
2018-09-19T20:20:53.821Z,98922.95
2018-09-19T20:23:22.425Z,98929.45
2018-09-19T20:25:50.958Z,98932.17
2018-09-19T20:28:19.486Z,98930.20
2018-09-19T20:30:48.198Z,98927.85
2018-09-19T20:33:16.728Z,98928.24
2018-09-19T20:35:45.269Z,98925.91
2018-09-19T20:38:13.787Z,98925.30
2018-09-19T20:40:42.411Z,98919.84
2018-09-19T20:43:10.950Z,98920.91
2018-09-19T20:45:39.407Z,98920.08
2018-09-19T20:48:07.989Z,98926.70
2018-09-19T20:50:36.445Z,98926.39
2018-09-19T20:53:05.234Z,98928.48
2018-09-19T20:55:33.987Z,98924.80
2018-09-19T20:58:02.923Z,98928.72
2018-09-19T21:00:31.447Z,98931.32
2018-09-19T21:03:00.067Z,98927.09
2018-09-19T21:05:28.583Z,98928.45
2018-09-19T21:07:57.095Z,98925.89
2018-09-19T21:10:25.566Z,98929.77
2018-09-19T21:12:54.045Z,98932.63
2018-09-19T21:15:23.167Z,98931.64
2018-09-19T21:17:51.670Z,98936.39
2018-09-19T21:20:20.214Z,98936.91
2018-09-19T21:22:48.689Z,98936.39
2018-09-19T21:25:17.148Z,98939.16
2018-09-19T21:27:45.749Z,98944.63
2018-09-19T21:30:14.260Z,98944.31
2018-09-19T21:32:42.822Z,98952.98
2018-09-19T21:35:11.305Z,98952.50
2018-09-19T21:37:39.757Z,98952.17
2018-09-19T21:40:08.294Z,98945.27
2018-09-19T21:42:36.719Z,98939.80
2018-09-19T21:45:05.477Z,98941.33
2018-09-19T21:47:34.234Z,98934.70
2018-09-19T21:50:03.002Z,98932.22
2018-09-19T21:52:31.849Z,98934.25
2018-09-19T21:55:00.598Z,98933.60
2018-09-19T21:57:29.058Z,98934.81
2018-09-19T21:59:57.577Z,98932.76
2018-09-19T22:02:26.160Z,98941.41
2018-09-19T22:04:54.776Z,98938.02
2018-09-19T22:07:23.276Z,98940.05
2018-09-19T22:09:51.802Z,98938.72
2018-09-19T22:12:20.231Z,98939.41
2018-09-19T22:14:48.778Z,98939.73
2018-09-19T22:17:17.214Z,98935.35
2018-09-19T22:19:45.714Z,98934.16
2018-09-19T22:22:14.160Z,98941.47
2018-09-19T22:24:42.694Z,98944.16
2018-09-19T22:27:11.154Z,98940.75
2018-09-19T22:29:39.586Z,98945.50
2018-09-19T22:32:08.109Z,98941.42
2018-09-19T22:34:36.669Z,98942.45
2018-09-19T22:37:05.210Z,98939.89
2018-09-19T22:39:33.766Z,98936.86
2018-09-19T22:42:02.494Z,98938.69
2018-09-19T22:44:31.047Z,98934.63
2018-09-19T22:46:59.493Z,98936.52
2018-09-19T22:49:27.953Z,98937.00
2018-09-19T22:51:56.616Z,98928.53
2018-09-19T22:54:25.038Z,98933.44
2018-09-19T22:56:53.554Z,98932.25
2018-09-19T22:59:22.035Z,98936.47
2018-09-19T23:01:50.543Z,98936.64
2018-09-19T23:04:18.969Z,98941.37
2018-09-19T23:06:47.485Z,98950.13
2018-09-19T23:09:15.937Z,98941.18
2018-09-19T23:11:44.605Z,98949.13
2018-09-19T23:14:13.141Z,98945.88
2018-09-19T23:16:41.608Z,98949.42
2018-09-19T23:19:10.054Z,98959.41
2018-09-19T23:21:38.514Z,98955.00
2018-09-19T23:24:07.033Z,98962.25
2018-09-19T23:26:35.552Z,98959.88
2018-09-19T23:29:04.145Z,98962.40
2018-09-19T23:31:32.589Z,98961.34
2018-09-19T23:34:01.070Z,98964.89
2018-09-19T23:36:29.569Z,98959.42
2018-09-19T23:38:58.053Z,98955.36
2018-09-19T23:41:26.565Z,98957.70
2018-09-19T23:43:55.095Z,98946.86
2018-09-19T23:46:23.591Z,98943.64
2018-09-19T23:48:52.057Z,98952.23
2018-09-19T23:51:20.553Z,98946.45
2018-09-19T23:53:49.023Z,98945.07
2018-09-19T23:56:17.518Z,98949.13
2018-09-19T23:58:45.977Z,98952.34
